Terminal Aerodrome Forecast
Issued by NWS Charleston, WV

Current Version | Previous Version | Graphics & Text | Print | Product List | Glossary On
Versions: 1 2 3 4 5 6 7 8 9 10 11 12 13 14 15 16 17 18 19 20 21 22 23 24
244
FTUS41 KRLX 202350
TAFEKN
TAF
KEKN 202350Z 2100/2124 13007KT P6SM VCTS SCT035CB
      TEMPO 2100/2102 22015G30KT 2SM TSRA BR BKN025CB
     FM210200 VRB03KT P6SM BKN025
      TEMPO 2102/2106 SCT025
     FM210800 15004KT P6SM BKN100
     FM211400 16008KT P6SM BKN070
     FM212000 16008KT 6SM SHRA BR OVC040
     FM212100 16008KT 5SM SHRA BR OVC025=

USA.gov is the U.S. government's official web portal to all federal, state and local government web resources and services.